Airports Norway Oslo Lufthavn

Oslo Lufthavn (ENGM / OSL)

Facts about Oslo Lufthavn

Name Oslo Lufthavn
City Oslo
Country Norway
ICAO code ENGM
IATA code OSL
Elevation 207.5688 meters (681 feet)

Weather

METAR

Metar data retrieved Friday, 19 July 2024 at 23:25 UTC (14 minutes ago)

ENGM 192320Z 13003KT CAVOK 16/12 Q1016

Live traffic

Navigraph Charts (account required)